Time;durP1;ratioP1;P1;durP2;ratioP2;P2;SDS_P1;SDS_P2;PMS_P1;PMS_P2;Temp;Humidity;BMP_temperature;BMP_pressure;BME280_temperature;BME280_humidity;BME280_pressure;Samples;Min_cycle;Max_cycle;Signal;HPM_P1;HPM_P2
2022/06/16 00:02:05;;;;;;;9.20;4.70;;;;;;;15.17;64.49;98708.11;106180;1276;22668;-84
2022/06/16 00:04:33;;;;;;;7.90;4.40;;;;;;;15.14;64.60;98714.48;106206;1277;22574;-84
2022/06/16 00:07:03;;;;;;;11.10;4.80;;;;;;;15.10;64.28;98713.46;106174;1274;25934;-84
2022/06/16 00:09:30;;;;;;;8.50;4.30;;;;;;;15.07;64.23;98706.33;106139;1276;22540;-84
2022/06/16 00:11:57;;;;;;;7.90;4.30;;;;;;;15.04;64.70;98704.45;106259;1275;137510;-84
2022/06/16 00:14:27;;;;;;;6.40;4.30;;;;;;;14.99;64.76;98702.95;106315;1274;22626;-84
2022/06/16 00:16:55;;;;;;;5.30;3.80;;;;;;;14.92;65.00;98703.15;106506;1274;137998;-84
2022/06/16 00:19:24;;;;;;;8.20;4.30;;;;;;;14.89;65.24;98703.19;106933;1274;25477;-83
2022/06/16 00:21:52;;;;;;;9.50;4.20;;;;;;;14.88;65.51;98702.96;106354;1276;22619;-83
2022/06/16 00:24:26;;;;;;;9.50;4.80;;;;;;;14.86;65.55;98702.77;106606;1273;137537;-83
2022/06/16 00:26:55;;;;;;;8.90;5.00;;;;;;;14.85;65.77;98700.69;106493;1278;24398;-83
2022/06/16 00:29:28;;;;;;;8.50;4.60;;;;;;;14.84;65.68;98706.66;106576;1276;137624;-83
2022/06/16 00:31:55;;;;;;;9.80;4.90;;;;;;;14.81;65.82;98703.69;106913;1274;22555;-83
2022/06/16 00:34:22;;;;;;;8.10;4.80;;;;;;;14.80;65.96;98702.19;106577;1274;24258;-83
2022/06/16 00:36:49;;;;;;;9.50;5.00;;;;;;;14.77;65.74;98698.58;106424;1277;137583;-83
2022/06/16 00:39:16;;;;;;;9.00;4.90;;;;;;;14.72;65.89;98691.64;107219;1274;22690;-83
2022/06/16 00:41:44;;;;;;;8.40;5.40;;;;;;;14.72;66.08;98691.91;107164;1276;137731;-83
2022/06/16 00:44:39;;;;;;;6.40;3.80;;;;;;;14.71;66.42;98689.33;106474;1276;22614;-83
2022/06/16 00:47:06;;;;;;;8.10;4.50;;;;;;;14.71;66.51;98685.21;106920;1274;140359;-84
2022/06/16 00:49:36;;;;;;;7.10;4.60;;;;;;;14.71;66.46;98685.27;106551;1276;23448;-84
2022/06/16 00:52:16;;;;;;;10.80;4.80;;;;;;;14.71;66.69;98680.77;106753;1275;25392;-84
2022/06/16 00:54:46;;;;;;;8.30;4.70;;;;;;;14.69;67.03;98675.27;106517;1277;137984;-84
2022/06/16 00:57:24;;;;;;;9.60;4.80;;;;;;;14.67;66.97;98671.16;106840;1274;25279;-84
2022/06/16 00:59:52;;;;;;;7.10;4.60;;;;;;;14.65;66.81;98671.02;106828;1274;137413;-83
2022/06/16 01:02:23;;;;;;;8.30;4.70;;;;;;;14.61;66.85;98669.76;106428;1274;22634;-84
2022/06/16 01:04:53;;;;;;;8.50;4.60;;;;;;;14.56;66.80;98665.45;106421;1275;137605;-84
2022/06/16 01:07:40;;;;;;;7.40;5.00;;;;;;;14.49;66.72;98667.15;106557;1275;22783;-84
2022/06/16 01:10:11;;;;;;;6.70;4.40;;;;;;;14.37;66.83;98667.94;106611;1276;22541;-84
2022/06/16 01:16:34;;;;;;;6.90;4.50;;;;;;;14.28;67.37;98668.88;107134;1274;23933;-84
2022/06/16 01:19:26;;;;;;;7.90;4.10;;;;;;;14.26;67.88;98666.80;107346;1274;22567;-83
2022/06/16 01:22:34;;;;;;;9.20;4.50;;;;;;;14.25;67.59;98669.45;106186;1275;25251;-84
2022/06/16 01:25:12;;;;;;;6.70;4.60;;;;;;;14.16;67.63;98668.30;107305;1274;137446;-84
2022/06/16 01:27:58;;;;;;;6.30;4.90;;;;;;;13.95;68.06;98668.16;106365;1275;25345;-84
2022/06/16 01:30:37;;;;;;;7.40;4.00;;;;;;;13.85;68.80;98667.98;106451;1277;138405;-83
2022/06/16 01:33:14;;;;;;;8.40;3.70;;;;;;;13.82;69.01;98667.29;106709;1277;22546;-84
2022/06/16 01:36:06;;;;;;;6.80;4.30;;;;;;;13.80;69.17;98664.09;106612;1274;138159;-86
2022/06/16 01:38:51;;;;;;;7.20;5.30;;;;;;;13.80;69.22;98660.36;106629;1276;22635;-84
2022/06/16 01:41:39;;;;;;;8.40;4.70;;;;;;;13.83;69.35;98665.93;106663;1274;137958;-84
2022/06/16 01:44:44;;;;;;;7.30;4.90;;;;;;;13.85;69.27;98666.16;106803;1275;24391;-84
2022/06/16 01:47:15;;;;;;;8.80;4.60;;;;;;;13.89;68.83;98664.11;106767;1274;138051;-84
2022/06/16 01:49:55;;;;;;;9.70;4.70;;;;;;;13.88;68.78;98659.66;106713;1275;23864;-84
2022/06/16 01:52:33;;;;;;;9.50;4.90;;;;;;;13.83;68.71;98658.52;106691;1275;22578;-84
2022/06/16 01:55:17;;;;;;;10.60;5.20;;;;;;;13.79;68.94;98652.63;106861;1278;30716;-84
2022/06/16 01:57:55;;;;;;;7.80;4.10;;;;;;;13.76;68.99;98649.06;106681;1276;25349;-83
2022/06/16 02:00:25;;;;;;;8.40;4.40;;;;;;;13.75;69.43;98648.39;106711;1277;138190;-84
2022/06/16 02:03:03;;;;;;;9.00;5.00;;;;;;;13.76;69.39;98648.90;106529;1277;22596;-84
2022/06/16 02:05:53;;;;;;;9.30;4.90;;;;;;;13.74;69.12;98648.12;106703;1274;138150;-84
2022/06/16 02:08:29;;;;;;;10.80;5.10;;;;;;;13.74;69.20;98645.42;106929;1275;24305;-84
2022/06/16 02:11:02;;;;;;;7.30;4.80;;;;;;;13.72;69.53;98647.38;106286;1281;138311;-84
2022/06/16 02:13:37;;;;;;;8.30;5.10;;;;;;;13.70;69.80;98646.81;106797;1277;22553;-85
2022/06/16 02:16:23;;;;;;;6.40;4.40;;;;;;;13.68;69.99;98645.59;106782;1274;24267;-84
2022/06/16 02:18:56;;;;;;;8.40;4.40;;;;;;;13.68;69.90;98637.88;106711;1274;138193;-83
2022/06/16 02:21:38;;;;;;;8.10;5.10;;;;;;;13.68;70.11;98632.56;106500;1275;22795;-85
2022/06/16 02:24:10;;;;;;;12.30;6.10;;;;;;;13.64;69.94;98637.20;106832;1274;137572;-83
2022/06/16 02:26:40;;;;;;;9.50;5.40;;;;;;;13.60;69.91;98636.17;106928;1275;22562;-86
2022/06/16 02:29:41;;;;;;;7.60;4.90;;;;;;;13.57;70.13;98639.15;106546;1274;137594;-84
2022/06/16 02:32:18;;;;;;;8.20;5.50;;;;;;;13.57;70.42;98644.57;106453;1278;23825;-84
2022/06/16 02:34:48;;;;;;;9.20;4.80;;;;;;;13.57;70.34;98648.29;107135;1274;137724;-85
2022/06/16 02:37:35;;;;;;;8.80;5.50;;;;;;;13.55;70.41;98652.75;106498;1274;25423;-84
2022/06/16 02:40:23;;;;;;;10.10;4.60;;;;;;;13.52;70.12;98654.87;106563;1278;23494;-85
2022/06/16 02:43:01;;;;;;;5.50;4.50;;;;;;;13.35;69.96;98654.77;106766;1275;138039;-85
2022/06/16 02:45:54;;;;;;;7.80;4.90;;;;;;;13.20;70.49;98654.68;106582;1277;22567;-84
2022/06/16 02:48:45;;;;;;;7.60;5.20;;;;;;;13.15;71.26;98651.52;106389;1278;137825;-85
2022/06/16 02:51:42;;;;;;;9.40;4.80;;;;;;;13.15;71.67;98652.55;106720;1277;22638;-85
2022/06/16 02:54:30;;;;;;;6.70;5.10;;;;;;;13.18;71.91;98655.58;106336;1277;137515;-85
2022/06/16 02:57:21;;;;;;;6.70;4.70;;;;;;;13.16;71.87;98659.83;106569;1274;22600;-85
2022/06/16 02:59:54;;;;;;;6.80;4.30;;;;;;;13.09;71.44;98656.38;106284;1277;138050;-85
2022/06/16 03:02:24;;;;;;;8.90;4.80;;;;;;;13.04;71.63;98657.80;106950;1276;22704;-85
2022/06/16 03:04:58;;;;;;;9.40;5.00;;;;;;;13.06;71.87;98656.02;106507;1275;138075;-85
2022/06/16 03:07:25;;;;;;;8.70;5.10;;;;;;;13.09;72.15;98657.30;106672;1274;25316;-85
2022/06/16 03:10:07;;;;;;;7.80;5.10;;;;;;;13.14;72.16;98660.64;107090;1274;23066;-85
2022/06/16 03:12:35;;;;;;;7.80;5.40;;;;;;;13.15;72.28;98659.93;106675;1274;138136;-86
2022/06/16 03:15:05;;;;;;;6.80;5.20;;;;;;;13.16;72.28;98659.56;106690;1274;22906;-84
2022/06/16 03:17:31;;;;;;;7.50;4.80;;;;;;;13.18;72.31;98661.27;106440;1277;138432;-84
2022/06/16 03:19:59;;;;;;;7.70;5.40;;;;;;;13.21;72.31;98658.58;106300;1275;24724;-85
2022/06/16 03:22:26;;;;;;;12.70;6.50;;;;;;;13.24;72.56;98660.52;106797;1275;23317;-86
2022/06/16 03:24:53;;;;;;;8.70;5.50;;;;;;;13.25;72.73;98662.28;106510;1278;138047;-85
2022/06/16 03:27:20;;;;;;;10.20;5.30;;;;;;;13.27;72.82;98662.48;106511;1275;23433;-86
2022/06/16 03:29:47;;;;;;;8.70;5.90;;;;;;;13.27;72.78;98653.95;106729;1274;137553;-86
2022/06/16 03:32:14;;;;;;;7.70;5.50;;;;;;;13.30;72.95;98662.40;107034;1274;22573;-85
2022/06/16 03:34:42;;;;;;;7.60;4.90;;;;;;;13.27;72.67;98664.05;106997;1274;138674;-85
2022/06/16 03:37:13;;;;;;;11.30;5.70;;;;;;;13.24;72.94;98656.15;106607;1274;22571;-86
2022/06/16 03:39:43;;;;;;;8.30;5.60;;;;;;;13.23;73.20;98651.10;106439;1274;23326;-85
2022/06/16 03:42:10;;;;;;;12.10;5.60;;;;;;;13.24;73.69;98646.86;107197;1274;137383;-85
2022/06/16 03:44:38;;;;;;;8.70;5.30;;;;;;;13.27;73.52;98648.91;106788;1277;22581;-86
2022/06/16 03:47:06;;;;;;;10.90;6.30;;;;;;;13.27;73.35;98645.58;106375;1275;137571;-86
2022/06/16 03:49:38;;;;;;;13.30;6.00;;;;;;;13.25;73.54;98644.13;107145;1274;25267;-86
2022/06/16 03:52:06;;;;;;;6.40;4.80;;;;;;;13.25;73.85;98640.96;106537;1274;23385;-86
2022/06/16 03:54:36;;;;;;;9.80;5.30;;;;;;;13.30;74.09;98641.84;106562;1277;138105;-86
2022/06/16 03:57:08;;;;;;;11.50;5.40;;;;;;;13.35;74.00;98641.41;106746;1274;26918;-86
2022/06/16 03:59:36;;;;;;;10.20;5.80;;;;;;;13.40;73.87;98641.04;106290;1277;137676;-86
2022/06/16 04:02:19;;;;;;;10.20;5.80;;;;;;;13.49;74.11;98644.83;106793;1277;22619;-86
2022/06/16 04:04:46;;;;;;;8.50;5.20;;;;;;;13.60;74.16;98648.33;106580;1275;138599;-85
2022/06/16 04:07:14;;;;;;;10.10;5.50;;;;;;;13.73;74.23;98646.73;106846;1274;22780;-86
2022/06/16 04:09:54;;;;;;;9.70;5.00;;;;;;;13.81;74.16;98645.27;106833;1274;25372;-87
2022/06/16 04:12:21;;;;;;;6.40;4.80;;;;;;;13.84;74.04;98643.59;106458;1274;138027;-86
2022/06/16 04:14:48;;;;;;;10.80;5.50;;;;;;;13.84;74.09;98639.48;106621;1277;25171;-86
2022/06/16 04:17:18;;;;;;;8.40;5.30;;;;;;;13.93;74.37;98635.71;106411;1277;137764;-86
2022/06/16 04:22:43;;;;;;;8.60;5.40;;;;;;;14.14;73.91;98632.41;106695;1276;137629;-86
2022/06/16 04:25:21;;;;;;;9.50;6.30;;;;;;;14.22;72.80;98636.45;107184;1276;22566;-86
2022/06/16 04:27:48;;;;;;;12.10;5.80;;;;;;;14.30;72.72;98636.63;106249;1277;22560;-86
2022/06/16 04:30:17;;;;;;;8.00;5.30;;;;;;;14.38;73.29;98636.83;106291;1277;138436;-86
2022/06/16 04:32:45;;;;;;;10.90;5.40;;;;;;;14.48;73.49;98634.31;106414;1275;22689;-86
2022/06/16 04:35:13;;;;;;;7.90;5.20;;;;;;;14.57;73.61;98628.79;106396;1277;138464;-86
2022/06/16 04:37:56;;;;;;;8.30;5.80;;;;;;;14.67;73.68;98631.25;106641;1274;22698;-87
2022/06/16 04:40:23;;;;;;;8.60;5.30;;;;;;;14.75;72.80;98634.36;107049;1274;25399;-86
2022/06/16 04:42:53;;;;;;;7.20;5.20;;;;;;;14.80;72.18;98636.45;106578;1272;137404;-85
2022/06/16 04:45:20;;;;;;;6.50;5.10;;;;;;;14.85;72.22;98634.61;106275;1277;22551;-85
2022/06/16 04:47:48;;;;;;;11.70;5.50;;;;;;;14.89;71.67;98637.15;106334;1277;137430;-86
2022/06/16 04:50:19;;;;;;;;;;;;;;;14.92;71.29;98636.55;106547;1275;22702;-85
2022/06/16 04:52:50;;;;;;;8.30;5.50;;;;;;;14.96;71.33;98635.64;106135;1277;124184;-86
2022/06/16 04:55:23;;;;;;;7.70;5.00;;;;;;;14.96;70.31;98637.06;106290;1276;22559;-86
2022/06/16 04:58:04;;;;;;;11.50;5.40;;;;;;;14.97;70.45;98636.85;106330;1277;24318;-86
2022/06/16 05:00:42;;;;;;;10.60;5.80;;;;;;;15.04;71.02;98631.16;106443;1274;138595;-86
2022/06/16 05:03:28;;;;;;;8.70;5.90;;;;;;;15.10;71.26;98627.29;106374;1274;23654;-86
2022/06/16 05:06:18;;;;;;;10.60;6.00;;;;;;;15.18;71.10;98626.64;106471;1274;137694;-86
2022/06/16 05:09:05;;;;;;;8.70;5.40;;;;;;;15.24;71.15;98624.41;106921;1274;30459;-86
2022/06/16 05:11:50;;;;;;;7.20;5.20;;;;;;;15.30;70.70;98624.09;106311;1274;137720;-86
2022/06/16 05:14:36;;;;;;;9.20;5.40;;;;;;;15.36;70.44;98624.54;106711;1274;25204;-86
2022/06/16 05:17:26;;;;;;;9.30;5.20;;;;;;;15.44;69.64;98624.05;106377;1274;137523;-86
2022/06/16 05:20:13;;;;;;;9.50;5.30;;;;;;;15.52;69.60;98622.69;106327;1274;22579;-86
2022/06/16 05:22:59;;;;;;;8.10;5.20;;;;;;;15.58;69.03;98621.71;106413;1274;137683;-86
2022/06/16 05:25:49;;;;;;;8.70;5.10;;;;;;;15.66;68.69;98622.69;106887;1273;25565;-86
2022/06/16 05:28:28;;;;;;;11.10;5.30;;;;;;;15.71;68.16;98624.83;106739;1275;25321;-86
2022/06/16 05:31:07;;;;;;;10.60;6.00;;;;;;;15.77;68.41;98623.49;106499;1274;25458;-86
2022/06/16 05:33:37;;;;;;;8.30;5.00;;;;;;;15.83;67.86;98619.48;106780;1274;24284;-86
2022/06/16 05:36:23;;;;;;;8.30;5.30;;;;;;;15.96;67.93;98610.14;106320;1274;138030;-87
2022/06/16 05:39:03;;;;;;;7.00;4.80;;;;;;;16.08;67.76;98609.94;106793;1276;22988;-86
2022/06/16 05:41:31;;;;;;;6.50;4.90;;;;;;;16.18;67.17;98609.27;107087;1275;137438;-87
2022/06/16 05:44:10;;;;;;;7.60;5.50;;;;;;;16.27;66.52;98608.21;106686;1277;22645;-87
2022/06/16 05:46:41;;;;;;;6.60;4.50;;;;;;;16.37;65.86;98607.34;106299;1274;24265;-86
2022/06/16 05:49:12;;;;;;;6.80;4.90;;;;;;;16.47;65.08;98607.55;107034;1274;23010;-86
2022/06/16 05:51:40;;;;;;;8.90;5.00;;;;;;;16.57;65.07;98605.86;106531;1274;25318;-86
2022/06/16 05:54:11;;;;;;;8.10;5.10;;;;;;;16.65;65.00;98607.48;106290;1274;138439;-86
2022/06/16 05:56:40;;;;;;;6.40;4.60;;;;;;;16.73;64.78;98606.73;106620;1274;23800;-86
2022/06/16 05:59:07;;;;;;;7.80;4.90;;;;;;;16.79;64.64;98603.07;106275;1274;138619;-86
2022/06/16 06:01:37;;;;;;;7.00;4.70;;;;;;;16.86;64.53;98605.20;106470;1274;25271;-86
2022/06/16 06:04:10;;;;;;;7.50;5.20;;;;;;;16.92;64.08;98602.27;106340;1275;23107;-86
2022/06/16 06:06:38;;;;;;;8.50;4.50;;;;;;;16.97;64.18;98601.75;106364;1275;138520;-86
2022/06/16 06:17:37;;;;;;;10.30;6.10;;;;;;;17.22;64.12;98594.66;106355;1275;137625;-86
2022/06/16 06:20:04;;;;;;;9.80;5.20;;;;;;;17.28;63.50;98594.30;106335;1274;22621;-87
2022/06/16 06:22:31;;;;;;;9.30;5.20;;;;;;;17.33;63.52;98592.33;106459;1274;22560;-86
2022/06/16 06:25:13;;;;;;;10.20;5.50;;;;;;;17.40;63.66;98596.52;107067;1274;25559;-86
2022/06/16 06:27:44;;;;;;;9.90;5.70;;;;;;;17.47;63.33;98595.65;106987;1274;22839;-86
2022/06/16 06:30:21;;;;;;;9.40;5.80;;;;;;;17.54;63.52;98594.60;106966;1274;137699;-87
2022/06/16 06:32:49;;;;;;;11.80;5.40;;;;;;;17.61;63.39;98594.38;106473;1274;25565;-86
2022/06/16 06:35:17;;;;;;;9.90;5.50;;;;;;;17.67;63.44;98589.70;106272;1277;138491;-86
2022/06/16 06:37:45;;;;;;;10.80;5.40;;;;;;;17.74;63.08;98588.76;106502;1275;24296;-86
2022/06/16 06:40:19;;;;;;;10.80;5.50;;;;;;;17.81;62.56;98591.28;107107;1274;23287;-86
2022/06/16 06:42:49;;;;;;;10.00;6.00;;;;;;;17.90;62.89;98590.52;106366;1275;137727;-86
2022/06/16 06:45:18;;;;;;;11.00;6.10;;;;;;;17.99;62.66;98586.36;106272;1275;25408;-86
2022/06/16 06:47:44;;;;;;;8.60;5.70;;;;;;;18.08;62.53;98585.61;106112;1274;137630;-86
2022/06/16 06:50:28;;;;;;;10.20;5.90;;;;;;;18.19;62.75;98589.20;107009;1274;25565;-86
2022/06/16 06:52:55;;;;;;;8.40;5.10;;;;;;;18.29;62.35;98586.38;106826;1273;138438;-86
2022/06/16 06:55:23;;;;;;;9.80;5.10;;;;;;;18.38;61.58;98581.75;106380;1277;23393;-86
2022/06/16 06:57:52;;;;;;;10.00;5.10;;;;;;;18.49;61.19;98577.21;106359;1274;23387;-86
2022/06/16 07:00:20;;;;;;;;;;;;;;;18.61;61.45;98571.00;106538;1274;137597;-86
2022/06/16 07:02:48;;;;;;;9.30;4.80;;;;;;;18.72;61.35;98573.27;106762;1274;23911;-86
2022/06/16 07:05:15;;;;;;;10.00;4.80;;;;;;;18.83;60.52;98574.66;106406;1274;137636;-86
2022/06/16 07:07:43;;;;;;;9.90;5.50;;;;;;;18.94;60.78;98570.65;106710;1274;25509;-86
2022/06/16 07:10:11;;;;;;;8.20;4.80;;;;;;;19.06;60.67;98563.20;107169;1276;23988;-87
2022/06/16 07:12:38;;;;;;;8.70;4.70;;;;;;;19.19;60.23;98559.86;106561;1276;137511;-86
2022/06/16 07:15:06;;;;;;;10.60;5.30;;;;;;;19.34;60.01;98559.58;106287;1277;22668;-86
2022/06/16 07:17:33;;;;;;;8.70;4.70;;;;;;;19.48;59.80;98552.61;106008;1274;138715;-86
2022/06/16 07:20:00;;;;;;;8.70;4.50;;;;;;;19.63;59.74;98554.56;106697;1274;23452;-86
2022/06/16 07:22:27;;;;;;;7.90;4.70;;;;;;;19.79;59.74;98554.33;106314;1275;22560;-87
2022/06/16 07:24:55;;;;;;;6.30;4.20;;;;;;;19.95;57.60;98553.48;106419;1274;137666;-87
2022/06/16 07:27:21;;;;;;;7.20;4.20;;;;;;;20.08;56.42;98548.70;106570;1274;22723;-87
2022/06/16 07:29:49;;;;;;;10.50;5.00;;;;;;;20.18;56.06;98549.96;106278;1274;137460;-87
2022/06/16 07:32:20;;;;;;;9.50;4.60;;;;;;;20.28;55.96;98547.48;106931;1274;22564;-86
2022/06/16 07:34:47;;;;;;;7.30;4.10;;;;;;;20.44;55.73;98547.17;107184;1274;138151;-88
2022/06/16 07:37:15;;;;;;;7.80;4.40;;;;;;;20.60;55.13;98543.93;106951;1274;25330;-86
2022/06/16 07:39:42;;;;;;;7.50;4.30;;;;;;;20.75;54.84;98541.94;106477;1276;24350;-86
2022/06/16 07:42:09;;;;;;;12.00;4.80;;;;;;;20.90;54.44;98544.73;107152;1274;137565;-86
2022/06/16 07:44:37;;;;;;;9.90;4.60;;;;;;;21.07;54.11;98541.31;106654;1274;25266;-86
2022/06/16 07:47:06;;;;;;;9.20;4.40;;;;;;;21.29;53.93;98541.30;106899;1274;137586;-86
2022/06/16 07:49:33;;;;;;;7.50;3.90;;;;;;;21.50;52.72;98544.02;106641;1274;22723;-86
2022/06/16 07:52:01;;;;;;;5.90;3.80;;;;;;;21.66;50.83;98539.59;106148;1276;25351;-86
2022/06/16 07:54:29;;;;;;;6.40;3.80;;;;;;;21.79;50.62;98541.06;106336;1276;138670;-86
2022/06/16 07:56:56;;;;;;;8.00;3.80;;;;;;;21.92;50.59;98535.52;106543;1276;25271;-86
2022/06/16 07:59:24;;;;;;;7.70;3.80;;;;;;;22.05;50.47;98536.89;106072;1277;137758;-85
2022/06/16 08:01:51;;;;;;;6.00;4.20;;;;;;;22.18;49.96;98534.66;106290;1275;25400;-86
2022/06/16 08:04:19;;;;;;;5.30;3.30;;;;;;;22.30;49.77;98533.69;106470;1274;22713;-87
2022/06/16 08:06:45;;;;;;;6.00;4.10;;;;;;;22.41;49.75;98531.22;106114;1274;137527;-86
2022/06/16 08:09:13;;;;;;;8.30;3.80;;;;;;;22.53;49.10;98523.91;107035;1274;22568;-87
2022/06/16 08:14:26;;;;;;;7.20;3.50;;;;;;;22.90;48.20;98527.22;106923;1274;22667;-86
2022/06/16 08:16:53;;;;;;;7.00;3.70;;;;;;;23.08;47.65;98525.22;107455;1274;137853;-86
2022/06/16 08:19:21;;;;;;;8.30;3.70;;;;;;;23.23;47.14;98521.96;107459;1274;23611;-86
2022/06/16 08:21:50;;;;;;;5.30;3.40;;;;;;;23.35;46.68;98516.20;106991;1277;22607;-86
2022/06/16 08:24:18;;;;;;;4.70;3.00;;;;;;;23.49;46.25;98515.86;106977;1274;137370;-86
2022/06/16 08:26:45;;;;;;;7.00;3.20;;;;;;;23.63;45.78;98515.48;107016;1274;22572;-87
2022/06/16 08:29:17;;;;;;;7.90;3.00;;;;;;;23.80;45.82;98515.88;107100;1274;138083;-86
2022/06/16 08:31:46;;;;;;;3.10;2.50;;;;;;;23.96;45.23;98515.89;107236;1274;22685;-87
2022/06/16 08:34:15;;;;;;;3.20;2.60;;;;;;;24.11;44.90;98512.78;107464;1273;25420;-86
2022/06/16 08:36:45;;;;;;;8.80;3.20;;;;;;;24.23;44.56;98506.21;107357;1275;138106;-86
2022/06/16 08:39:15;;;;;;;3.80;2.70;;;;;;;24.35;44.22;98506.74;106979;1274;25630;-87
2022/06/16 08:41:50;;;;;;;4.00;2.80;;;;;;;24.49;44.91;98505.10;106484;1274;137526;-86
2022/06/16 08:44:31;;;;;;;6.50;2.30;;;;;;;24.62;44.30;98501.88;106297;1274;23924;-86
2022/06/16 08:47:40;;;;;;;3.20;2.90;;;;;;;24.72;42.30;98499.19;106154;1274;137688;-85
2022/06/16 08:50:28;;;;;;;3.90;2.20;;;;;;;24.79;42.04;98501.53;106365;1274;24298;-85
2022/06/16 08:53:14;;;;;;;5.50;1.90;;;;;;;24.86;40.68;98495.33;106220;1276;137589;-85
2022/06/16 08:56:04;;;;;;;3.80;2.00;;;;;;;24.91;40.50;98502.20;106277;1273;22771;-85
2022/06/16 08:58:58;;;;;;;4.40;2.20;;;;;;;25.00;40.99;98501.14;106350;1276;25386;-85
2022/06/16 09:01:50;;;;;;;3.80;2.40;;;;;;;25.11;40.95;98501.55;106290;1274;22804;-85
2022/06/16 09:04:33;;;;;;;3.60;2.20;;;;;;;25.33;40.96;98505.65;106686;1274;31929;-87
2022/06/16 09:07:24;;;;;;;2.50;2.10;;;;;;;25.51;40.44;98501.69;106548;1274;137511;-83
2022/06/16 09:10:15;;;;;;;3.90;2.00;;;;;;;25.70;40.40;98491.36;106314;1274;22582;-86
2022/06/16 09:13:20;;;;;;;4.10;2.10;;;;;;;25.88;39.89;98493.08;106282;1274;137427;-86
2022/06/16 09:16:05;;;;;;;3.30;2.00;;;;;;;26.06;39.88;98492.30;106182;1275;22541;-86
2022/06/16 09:19:12;;;;;;;3.30;2.60;;;;;;;26.29;39.86;98492.02;106555;1274;137787;-85
2022/06/16 09:22:34;;;;;;;4.20;1.90;;;;;;;26.47;39.24;98490.91;106182;1277;22565;-84
2022/06/16 09:25:29;;;;;;;3.40;1.80;;;;;;;26.60;38.31;98488.55;106489;1275;138153;-85
2022/06/16 09:28:22;;;;;;;4.00;1.90;;;;;;;26.76;39.02;98485.56;106488;1275;22577;-85
2022/06/16 09:30:54;;;;;;;3.70;2.30;;;;;;;26.86;38.73;98479.88;106059;1277;137550;-90
2022/06/16 09:33:36;;;;;;;4.40;1.80;;;;;;;26.84;38.76;98483.17;106433;1274;22563;-85
2022/06/16 09:36:13;;;;;;;2.90;2.10;;;;;;;26.87;38.87;98486.11;106303;1274;137463;-85
2022/06/16 09:38:59;;;;;;;2.60;2.00;;;;;;;27.01;38.56;98480.08;106388;1274;24361;-85
2022/06/16 09:45:31;;;;;;;1.90;1.80;;;;;;;27.02;36.95;98475.23;106464;1274;24113;-85
2022/06/16 09:48:04;;;;;;;3.80;1.80;;;;;;;27.00;38.51;98478.11;106515;1274;137491;-84
2022/06/16 09:51:09;;;;;;;4.00;2.00;;;;;;;27.17;37.25;98478.29;106696;1274;22594;-83
2022/06/16 09:53:53;;;;;;;5.80;2.00;;;;;;;27.42;37.57;98482.47;106091;1274;137411;-85
2022/06/16 09:56:29;;;;;;;4.50;2.60;;;;;;;27.52;36.88;98481.09;106469;1275;22573;-81
2022/06/16 09:58:59;;;;;;;3.80;2.10;;;;;;;27.44;36.67;98477.50;106216;1274;137748;-85
2022/06/16 10:01:31;;;;;;;4.10;2.10;;;;;;;27.45;36.91;98473.77;106082;1275;25245;-81
2022/06/16 10:03:58;;;;;;;3.20;1.90;;;;;;;27.60;37.69;98476.16;106429;1274;23953;-79
2022/06/16 10:06:32;;;;;;;2.90;1.90;;;;;;;27.80;36.85;98473.05;106744;1274;137594;-86
2022/06/16 10:09:19;;;;;;;3.70;1.90;;;;;;;27.96;36.16;98471.97;106356;1274;22531;-89
2022/06/16 10:12:24;;;;;;;4.50;2.30;;;;;;;28.15;35.96;98473.86;106391;1274;137914;-91
2022/06/16 10:14:57;;;;;;;3.50;2.20;;;;;;;28.19;35.96;98475.64;106650;1274;25423;-76
2022/06/16 10:17:25;;;;;;;2.50;1.90;;;;;;;28.29;35.86;98472.04;106410;1274;137639;-76
2022/06/16 10:19:56;;;;;;;2.20;1.80;;;;;;;28.47;35.63;98468.23;106068;1274;25329;-79
2022/06/16 10:22:26;;;;;;;1.90;1.60;;;;;;;28.67;34.37;98466.39;106833;1274;24920;-86
2022/06/16 10:25:45;;;;;;;2.60;1.80;;;;;;;28.85;34.58;98468.87;106456;1273;137438;-80
2022/06/16 10:28:29;;;;;;;2.60;1.90;;;;;;;29.10;33.69;98462.37;106764;1274;23186;-91
2022/06/16 10:30:58;;;;;;;5.10;1.80;;;;;;;29.25;32.71;98465.75;108786;1273;137996;-80
2022/06/16 10:33:33;;;;;;;1.80;1.70;;;;;;;29.43;32.46;98466.02;107929;1275;22360;-85
2022/06/16 10:36:06;;;;;;;2.50;1.80;;;;;;;29.44;31.92;98462.19;106649;1274;138218;-80
2022/06/16 10:38:45;;;;;;;3.50;1.70;;;;;;;29.32;32.56;98461.39;106355;1274;23478;-85
2022/06/16 10:41:29;;;;;;;;;;;;;;;29.09;32.54;98462.11;106373;1274;137934;-86
2022/06/16 10:44:00;;;;;;;4.90;2.10;;;;;;;28.96;33.01;98461.20;106479;1274;22550;-86
2022/06/16 10:46:35;;;;;;;3.40;2.00;;;;;;;29.16;32.70;98460.73;106596;1274;22584;-84
2022/06/16 10:49:35;;;;;;;4.00;1.60;;;;;;;29.34;32.21;98459.59;106171;1274;137614;-86
2022/06/16 10:52:40;;;;;;;3.80;1.70;;;;;;;29.45;30.92;98463.39;106338;1274;22540;-86
2022/06/16 10:55:10;;;;;;;3.90;1.70;;;;;;;29.43;31.11;98464.81;106320;1274;138102;-84
2022/06/16 10:57:45;;;;;;;3.50;1.20;;;;;;;29.29;30.89;98461.80;106526;1274;22541;-88
2022/06/16 11:00:20;;;;;;;2.30;1.40;;;;;;;29.26;30.41;98453.66;106317;1274;137475;-83
2022/06/16 11:03:12;;;;;;;2.80;1.50;;;;;;;29.38;30.70;98453.81;106238;1274;22573;-79
2022/06/16 11:05:59;;;;;;;3.70;1.50;;;;;;;29.60;30.55;98450.61;106162;1275;138661;-81
2022/06/16 11:08:39;;;;;;;2.10;1.60;;;;;;;29.75;29.72;98444.41;106345;1274;22545;-79
2022/06/16 11:11:06;;;;;;;3.20;1.40;;;;;;;29.80;29.68;98443.31;106303;1274;137569;-83
2022/06/16 11:13:46;;;;;;;2.50;1.70;;;;;;;29.65;29.32;98442.05;106129;1275;22768;-84
2022/06/16 11:16:27;;;;;;;1.70;1.60;;;;;;;29.55;29.02;98436.90;106991;1274;22566;-84
2022/06/16 11:18:58;;;;;;;3.10;1.40;;;;;;;29.45;29.43;98442.31;107182;1274;138289;-83
2022/06/16 11:21:29;;;;;;;4.50;1.50;;;;;;;29.24;30.23;98439.11;107379;1274;23621;-84
2022/06/16 11:24:00;;;;;;;3.60;1.60;;;;;;;29.24;31.41;98438.23;107317;1274;138524;-84
2022/06/16 11:26:32;;;;;;;3.80;1.80;;;;;;;29.41;30.96;98439.60;107127;1274;25378;-84
2022/06/16 11:29:34;;;;;;;2.20;1.50;;;;;;;29.58;30.71;98440.65;106843;1274;139254;-82
2022/06/16 11:32:28;;;;;;;1.70;1.40;;;;;;;29.81;30.24;98436.35;107094;1274;25418;-83
2022/06/16 11:34:55;;;;;;;2.90;1.30;;;;;;;30.06;29.40;98431.89;107093;1274;138569;-82
2022/06/16 11:37:50;;;;;;;1.50;1.40;;;;;;;30.19;29.81;98435.70;106887;1276;25268;-84
2022/06/16 11:40:32;;;;;;;1.80;1.30;;;;;;;30.33;29.43;98427.58;107211;1274;23674;-82
2022/06/16 11:43:41;;;;;;;3.80;1.80;;;;;;;30.47;29.06;98427.41;106949;1276;138382;-82
2022/06/16 11:46:38;;;;;;;2.10;1.50;;;;;;;30.58;27.97;98423.63;106768;1274;24216;-83
2022/06/16 11:49:44;;;;;;;3.10;1.60;;;;;;;30.65;28.16;98422.52;107059;1276;138126;-83
2022/06/16 11:53:00;;;;;;;2.80;2.20;;;;;;;30.86;28.17;98419.51;106933;1276;22608;-83
2022/06/16 11:55:33;;;;;;;2.90;1.60;;;;;;;31.03;27.08;98414.11;106741;1275;22566;-83
2022/06/16 11:58:38;;;;;;;3.60;1.40;;;;;;;31.15;27.44;98412.98;106982;1276;24316;-83
2022/06/16 12:01:24;;;;;;;3.10;1.40;;;;;;;31.37;28.05;98410.90;107660;1274;138492;-81
2022/06/16 12:04:16;;;;;;;2.50;1.70;;;;;;;31.50;27.50;98412.16;106775;1275;25375;-83
2022/06/16 12:07:40;;;;;;;1.70;1.50;;;;;;;31.21;28.12;98412.09;107156;1274;22411;-83
2022/06/16 12:10:30;;;;;;;2.70;1.60;;;;;;;30.89;27.56;98407.90;107239;1274;32087;-83
2022/06/16 12:13:17;;;;;;;2.50;1.70;;;;;;;30.38;26.89;98396.02;107028;1274;138311;-84
2022/06/16 12:16:51;;;;;;;2.40;1.60;;;;;;;30.05;28.02;98395.52;107466;1274;22621;-83
2022/06/16 12:20:12;;;;;;;1.70;1.60;;;;;;;30.37;28.54;98379.97;107896;1274;24374;-83
2022/06/16 12:23:21;;;;;;;1.60;1.50;;;;;;;30.68;28.30;98374.60;107535;1274;138245;-84
2022/06/16 12:26:51;;;;;;;2.60;1.50;;;;;;;30.80;28.13;98369.30;107215;1274;22590;-82
2022/06/16 12:29:30;;;;;;;1.90;1.70;;;;;;;31.00;28.29;98363.38;106341;1274;138163;-83
2022/06/16 12:32:34;;;;;;;3.70;1.50;;;;;;;31.23;27.97;98356.80;106410;1274;25275;-83